createdAt,value
2023-04-02T00:02:33.436Z,3.56
2023-04-02T00:05:35.654Z,3.52
2023-04-02T00:08:10.402Z,3.49
2023-04-02T00:10:49.071Z,3.43
2023-04-02T00:13:29.140Z,3.35
2023-04-02T00:16:03.619Z,3.33
2023-04-02T00:18:43.202Z,3.38
2023-04-02T00:21:17.636Z,3.37
2023-04-02T00:23:48.793Z,3.37
2023-04-02T00:26:32.091Z,3.36
2023-04-02T00:29:04.209Z,3.38
2023-04-02T00:31:36.378Z,3.37
2023-04-02T00:34:11.970Z,3.35
2023-04-02T00:36:44.451Z,3.28
2023-04-02T00:39:21.156Z,3.33
2023-04-02T00:41:54.893Z,3.32
2023-04-02T00:44:25.736Z,3.28
2023-04-02T00:46:58.085Z,3.25
2023-04-02T00:49:38.012Z,3.12
2023-04-02T00:52:12.599Z,3.22
2023-04-02T00:54:52.480Z,3.17
2023-04-02T00:57:26.451Z,3.12
2023-04-02T00:59:59.877Z,3.19
2023-04-02T01:02:33.697Z,3.21
2023-04-02T01:05:24.973Z,3.22
2023-04-02T01:08:10.951Z,3.21
2023-04-02T01:10:57.070Z,3.19
2023-04-02T01:13:37.685Z,3.18
2023-04-02T01:16:18.533Z,3.19
2023-04-02T01:18:57.133Z,3.17
2023-04-02T01:21:42.814Z,3.14
2023-04-02T01:24:16.186Z,3.07
2023-04-02T01:26:55.746Z,3.09
2023-04-02T01:29:34.521Z,3.10
2023-04-02T01:32:08.749Z,3.11
2023-04-02T01:34:39.314Z,3.12
2023-04-02T01:37:23.249Z,3.12
2023-04-02T01:40:17.443Z,3.14
2023-04-02T01:42:56.551Z,3.04
2023-04-02T01:45:30.332Z,3.06
2023-04-02T01:48:01.880Z,2.99
2023-04-02T01:50:37.453Z,2.99
2023-04-02T01:53:11.531Z,2.91
2023-04-02T01:55:46.151Z,2.99
2023-04-02T01:58:24.302Z,2.98
2023-04-02T02:01:01.721Z,2.86
2023-04-02T02:03:33.931Z,2.94
2023-04-02T02:06:09.082Z,2.90
2023-04-02T02:08:44.539Z,2.93
2023-04-02T02:11:18.601Z,2.89
2023-04-02T02:13:50.215Z,2.90
2023-04-02T02:16:24.491Z,2.84
2023-04-02T02:18:57.883Z,2.83
2023-04-02T02:21:40.146Z,2.75
2023-04-02T02:24:22.352Z,2.84
2023-04-02T02:27:04.606Z,2.75
2023-04-02T02:29:42.427Z,2.83
2023-04-02T02:32:17.553Z,2.76
2023-04-02T02:34:55.495Z,2.77
2023-04-02T02:37:32.319Z,2.76
2023-04-02T02:40:06.929Z,2.76
2023-04-02T02:42:42.057Z,2.71
2023-04-02T02:45:18.680Z,2.76
2023-04-02T02:47:55.025Z,2.79
2023-04-02T02:50:31.496Z,2.79
2023-04-02T02:53:08.747Z,2.81
2023-04-02T02:55:40.742Z,2.81
2023-04-02T02:58:23.641Z,2.87
2023-04-02T03:01:20.235Z,2.87
2023-04-02T03:03:57.530Z,2.83
2023-04-02T03:06:29.900Z,2.84
2023-04-02T03:09:08.239Z,2.82
2023-04-02T03:11:47.351Z,2.71
2023-04-02T03:14:30.071Z,2.86
2023-04-02T03:17:06.725Z,2.86
2023-04-02T03:19:47.528Z,2.88
2023-04-02T03:22:24.811Z,2.80
2023-04-02T03:25:01.259Z,2.85
2023-04-02T03:27:37.445Z,2.83
2023-04-02T03:30:26.834Z,2.90
2023-04-02T03:33:03.938Z,2.90
2023-04-02T03:35:42.002Z,2.92
2023-04-02T03:38:19.626Z,2.91
2023-04-02T03:41:02.696Z,2.94
2023-04-02T03:43:39.632Z,2.94
2023-04-02T03:46:21.229Z,2.92
2023-04-02T03:48:55.388Z,2.90
2023-04-02T03:51:33.668Z,2.85
2023-04-02T03:54:06.485Z,2.91
2023-04-02T03:56:42.465Z,2.92
2023-04-02T03:59:26.168Z,2.90
2023-04-02T04:02:02.075Z,2.88
2023-04-02T04:04:35.141Z,2.89
2023-04-02T04:07:14.418Z,2.88
2023-04-02T04:09:49.109Z,2.85
2023-04-02T04:12:36.166Z,2.87
2023-04-02T04:15:15.494Z,2.86
2023-04-02T04:17:55.947Z,2.78
2023-04-02T04:20:37.944Z,2.89
2023-04-02T04:23:26.028Z,2.92
2023-04-02T04:26:02.112Z,2.91
2023-04-02T04:28:41.766Z,2.93
2023-04-02T04:31:22.268Z,2.96
2023-04-02T04:34:03.241Z,2.99
2023-04-02T04:36:54.463Z,2.98
2023-04-02T04:39:39.709Z,2.99
2023-04-02T04:42:17.493Z,2.98
2023-04-02T04:44:54.726Z,2.98
2023-04-02T04:47:31.972Z,2.95
2023-04-02T04:50:11.424Z,2.92
2023-04-02T04:52:45.529Z,2.91
2023-04-02T04:55:32.975Z,2.89
2023-04-02T04:58:11.409Z,2.89
2023-04-02T05:00:51.389Z,2.91
2023-04-02T05:03:33.086Z,2.94
2023-04-02T05:06:13.426Z,2.95
2023-04-02T05:08:50.277Z,2.96
2023-04-02T05:11:34.212Z,2.94
2023-04-02T05:14:14.164Z,2.97
2023-04-02T05:16:52.503Z,2.97
2023-04-02T05:19:29.099Z,2.94
2023-04-02T05:22:07.542Z,2.93
2023-04-02T05:24:56.602Z,2.92
2023-04-02T05:27:39.189Z,2.96
2023-04-02T05:30:34.884Z,2.97
2023-04-02T05:33:10.088Z,2.95
2023-04-02T05:35:47.888Z,2.98
2023-04-02T05:38:23.895Z,2.95
2023-04-02T05:41:02.611Z,2.97
2023-04-02T05:43:41.027Z,2.99
2023-04-02T05:46:20.013Z,2.94
2023-04-02T05:48:57.144Z,3.06
2023-04-02T05:51:34.798Z,3.07
2023-04-02T05:54:09.412Z,3.08
2023-04-02T05:56:45.385Z,3.07
2023-04-02T05:59:23.209Z,3.11
2023-04-02T06:02:00.629Z,3.14
2023-04-02T06:04:44.183Z,3.22
2023-04-02T06:07:19.589Z,3.22
2023-04-02T06:10:03.534Z,3.17
2023-04-02T06:12:42.386Z,3.17
2023-04-02T06:15:19.724Z,3.78
2023-04-02T06:17:55.951Z,4.61
2023-04-02T06:20:27.349Z,5.16
2023-04-02T06:23:02.713Z,5.36
2023-04-02T06:25:38.328Z,5.99
2023-04-02T06:28:18.222Z,5.37
2023-04-02T06:31:02.424Z,4.50
2023-04-02T06:33:38.579Z,4.05
2023-04-02T06:36:12.881Z,3.70
2023-04-02T06:38:46.653Z,3.43
2023-04-02T06:41:22.593Z,3.53
2023-04-02T06:44:21.541Z,3.52
2023-04-02T06:47:08.909Z,3.47
2023-04-02T06:49:44.065Z,3.48
2023-04-02T06:52:22.928Z,3.51
2023-04-02T06:54:53.669Z,3.54
2023-04-02T06:57:25.079Z,3.57
2023-04-02T06:59:57.416Z,3.56
2023-04-02T07:02:38.454Z,3.56
2023-04-02T07:05:13.126Z,3.60
2023-04-02T07:07:50.984Z,3.62
2023-04-02T07:10:22.699Z,3.69
2023-04-02T07:12:53.432Z,3.56
2023-04-02T07:15:26.460Z,3.82
2023-04-02T07:18:00.330Z,3.83
2023-04-02T07:20:34.302Z,3.71
2023-04-02T07:23:09.389Z,3.79
2023-04-02T07:25:39.896Z,3.80
2023-04-02T07:28:10.554Z,3.76
2023-04-02T07:30:41.488Z,3.77
2023-04-02T07:33:16.672Z,3.77
2023-04-02T07:35:47.557Z,3.77
2023-04-02T07:38:18.181Z,3.84
2023-04-02T07:40:48.961Z,3.79
2023-04-02T07:43:19.587Z,3.89
2023-04-02T07:45:50.328Z,3.89
2023-04-02T07:48:23.536Z,3.89
2023-04-02T07:50:54.315Z,3.89
2023-04-02T07:53:32.378Z,3.96
2023-04-02T07:56:05.213Z,3.98
2023-04-02T07:58:36.794Z,3.95
2023-04-02T08:01:07.427Z,3.95
2023-04-02T08:03:41.671Z,4.01
2023-04-02T08:06:12.639Z,4.06
2023-04-02T08:08:43.668Z,4.05
2023-04-02T08:11:14.811Z,4.12
2023-04-02T08:13:45.660Z,4.15
2023-04-02T08:16:17.018Z,4.07
2023-04-02T08:18:50.546Z,4.06
2023-04-02T08:21:21.464Z,4.00
2023-04-02T08:23:52.203Z,3.95
2023-04-02T08:26:22.726Z,4.07
2023-04-02T08:28:53.540Z,4.06
2023-04-02T08:31:24.667Z,4.09
2023-04-02T08:33:59.173Z,4.15
2023-04-02T08:36:33.292Z,4.15
2023-04-02T08:39:04.789Z,4.18
2023-04-02T08:41:41.168Z,4.12
2023-04-02T08:44:28.923Z,4.16
2023-04-02T08:47:06.212Z,4.19
2023-04-02T08:49:46.144Z,4.24
2023-04-02T08:52:24.991Z,4.20
2023-04-02T08:54:58.123Z,4.38
2023-04-02T08:57:39.866Z,4.46
2023-04-02T09:00:24.588Z,4.36
2023-04-02T09:03:01.435Z,4.28
2023-04-02T09:06:06.316Z,4.35
2023-04-02T09:08:55.226Z,4.36
2023-04-02T09:11:53.074Z,4.42
2023-04-02T09:14:39.332Z,4.45
2023-04-02T09:17:20.069Z,4.39
2023-04-02T09:19:57.453Z,4.33
2023-04-02T09:22:33.283Z,4.47
2023-04-02T09:25:06.302Z,4.41
2023-04-02T09:27:39.125Z,4.51
2023-04-02T09:30:26.990Z,4.58
2023-04-02T09:32:59.737Z,4.52
2023-04-02T09:35:32.530Z,4.51
2023-04-02T09:38:23.627Z,4.42
2023-04-02T09:41:02.345Z,4.50
2023-04-02T09:43:34.655Z,4.56
2023-04-02T09:46:08.391Z,4.62
2023-04-02T09:48:44.011Z,4.71
2023-04-02T09:51:17.685Z,4.77
2023-04-02T09:53:51.961Z,4.79
2023-04-02T09:56:26.924Z,4.83
2023-04-02T09:59:09.006Z,4.88
2023-04-02T10:01:41.739Z,4.89
2023-04-02T10:04:48.261Z,4.91
2023-04-02T10:07:35.155Z,5.00
2023-04-02T10:10:23.956Z,5.17
2023-04-02T10:13:03.249Z,5.29
2023-04-02T10:15:38.212Z,5.30
2023-04-02T10:18:17.326Z,5.35
2023-04-02T10:20:51.650Z,5.28
2023-04-02T10:23:22.755Z,5.39
2023-04-02T10:26:04.429Z,5.41
2023-04-02T10:28:53.964Z,5.36
2023-04-02T10:31:30.275Z,5.53
2023-04-02T10:34:04.311Z,5.72
2023-04-02T10:36:51.185Z,5.73
2023-04-02T10:39:25.283Z,5.81
2023-04-02T10:42:05.049Z,5.77
2023-04-02T10:44:56.048Z,5.73
2023-04-02T10:47:35.883Z,5.69
2023-04-02T10:50:26.387Z,5.64
2023-04-02T10:53:04.557Z,5.63
2023-04-02T10:55:43.292Z,5.82
2023-04-02T10:58:26.458Z,5.89
2023-04-02T11:00:59.785Z,6.09
2023-04-02T11:03:36.827Z,6.09
2023-04-02T11:06:14.183Z,6.06
2023-04-02T11:08:46.759Z,6.07
2023-04-02T11:11:20.099Z,6.27
2023-04-02T11:13:58.441Z,6.21
2023-04-02T11:16:30.256Z,6.16
2023-04-02T11:19:29.640Z,5.90
2023-04-02T11:22:04.352Z,5.77
2023-04-02T11:24:45.698Z,5.88
2023-04-02T11:27:21.625Z,6.09
2023-04-02T11:29:58.867Z,6.38
2023-04-02T11:32:39.693Z,6.54
2023-04-02T11:35:39.196Z,6.78
2023-04-02T11:38:53.022Z,6.82
2023-04-02T11:42:25.085Z,6.85
2023-04-02T11:44:59.580Z,7.05
2023-04-02T11:47:31.322Z,7.20
2023-04-02T11:50:07.276Z,7.26
2023-04-02T11:52:55.000Z,7.24
2023-04-02T11:55:36.722Z,7.24
2023-04-02T11:58:44.735Z,7.31
2023-04-02T12:01:46.606Z,7.62
2023-04-02T12:05:05.701Z,7.80
2023-04-02T12:08:10.404Z,7.80
2023-04-02T12:10:57.337Z,8.14
2023-04-02T12:13:58.750Z,8.16
2023-04-02T12:16:36.796Z,8.08
2023-04-02T12:19:11.724Z,8.09
2023-04-02T12:21:48.919Z,8.29
2023-04-02T12:24:24.047Z,8.34
2023-04-02T12:27:15.811Z,8.48
2023-04-02T12:29:47.286Z,8.69
2023-04-02T12:32:29.600Z,8.82
2023-04-02T12:35:08.452Z,8.75
2023-04-02T12:37:39.225Z,8.48
2023-04-02T12:40:20.655Z,8.27
2023-04-02T12:42:51.213Z,8.41
2023-04-02T12:45:29.377Z,8.46
2023-04-02T12:48:07.111Z,8.59
2023-04-02T12:50:38.298Z,8.77
2023-04-02T12:53:22.006Z,8.72
2023-04-02T12:55:54.323Z,8.58
2023-04-02T12:58:34.802Z,8.49
2023-04-02T13:01:20.546Z,8.20
2023-04-02T13:04:08.282Z,8.15
2023-04-02T13:06:39.525Z,7.99
2023-04-02T13:09:29.563Z,7.80
2023-04-02T13:12:00.827Z,8.05
2023-04-02T13:14:32.702Z,8.00
2023-04-02T13:17:03.422Z,8.13
2023-04-02T13:19:37.016Z,8.24
2023-04-02T13:22:34.920Z,8.45
2023-04-02T13:25:05.661Z,8.53
2023-04-02T13:27:36.166Z,8.59
2023-04-02T13:30:11.656Z,8.89
2023-04-02T13:32:42.474Z,9.11
2023-04-02T13:35:15.895Z,9.40
2023-04-02T13:37:47.072Z,9.47
2023-04-02T13:40:20.581Z,9.54
2023-04-02T13:42:52.602Z,9.60
2023-04-02T13:45:28.132Z,9.58
2023-04-02T13:48:01.353Z,9.67
2023-04-02T13:50:36.613Z,9.66
2023-04-02T13:53:11.019Z,9.37
2023-04-02T13:55:45.465Z,9.15
2023-04-02T13:58:16.362Z,9.15
2023-04-02T14:00:47.005Z,9.30
2023-04-02T14:03:22.124Z,9.19
2023-04-02T14:06:08.201Z,9.08
2023-04-02T14:08:54.198Z,9.32
2023-04-02T14:11:38.807Z,9.31
2023-04-02T14:14:15.850Z,8.91
2023-04-02T14:17:02.231Z,8.60
2023-04-02T14:19:49.545Z,8.28
2023-04-02T14:22:35.124Z,8.08
2023-04-02T14:25:17.816Z,8.12
2023-04-02T14:27:56.469Z,8.34
2023-04-02T14:30:36.802Z,8.69
2023-04-02T14:33:12.763Z,8.93
2023-04-02T14:35:48.165Z,8.91
2023-04-02T14:38:27.301Z,8.98
2023-04-02T14:41:03.591Z,8.99
2023-04-02T14:43:39.442Z,9.10
2023-04-02T14:46:11.783Z,9.09
2023-04-02T14:48:52.868Z,9.09
2023-04-02T14:51:29.165Z,9.02
2023-04-02T14:54:10.189Z,8.81
2023-04-02T14:56:48.120Z,8.66
2023-04-02T14:59:32.272Z,8.78
2023-04-02T15:02:06.551Z,9.06
2023-04-02T15:04:39.908Z,9.26
2023-04-02T15:07:21.565Z,9.39
2023-04-02T15:10:02.050Z,9.53
2023-04-02T15:12:38.235Z,9.54
2023-04-02T15:15:26.781Z,9.58
2023-04-02T15:18:01.342Z,9.41
2023-04-02T15:20:41.225Z,9.25
2023-04-02T15:23:21.702Z,9.01
2023-04-02T15:26:05.373Z,8.76
2023-04-02T15:28:42.242Z,8.56
2023-04-02T15:31:16.853Z,8.46
2023-04-02T15:33:50.533Z,8.45
2023-04-02T15:36:44.586Z,8.64
2023-04-02T15:39:39.347Z,8.96
2023-04-02T15:42:31.629Z,9.31
2023-04-02T15:45:20.250Z,9.42
2023-04-02T15:48:35.571Z,9.32
2023-04-02T15:51:21.472Z,9.44
2023-04-02T15:54:03.000Z,9.47
2023-04-02T15:56:40.872Z,9.22
2023-04-02T15:59:37.808Z,9.04
2023-04-02T16:02:39.713Z,8.68
2023-04-02T16:05:18.385Z,8.53
2023-04-02T16:08:05.039Z,8.39
2023-04-02T16:10:42.317Z,8.31
2023-04-02T16:13:27.144Z,8.23
2023-04-02T16:16:07.353Z,8.04
2023-04-02T16:18:48.210Z,8.14
2023-04-02T16:21:23.232Z,8.22
2023-04-02T16:23:54.557Z,8.39
2023-04-02T16:26:55.108Z,8.50
2023-04-02T16:29:55.472Z,8.73
2023-04-02T16:32:52.584Z,8.83
2023-04-02T16:38:15.788Z,8.74
2023-04-02T16:41:07.059Z,8.47
2023-04-02T16:43:51.318Z,8.51
2023-04-02T16:46:39.064Z,8.32
2023-04-02T16:49:27.802Z,8.14
2023-04-02T16:52:08.527Z,7.90
2023-04-02T16:54:46.930Z,7.90
2023-04-02T16:57:27.467Z,7.80
2023-04-02T17:00:10.732Z,7.73
2023-04-02T17:02:53.969Z,7.69
2023-04-02T17:05:34.330Z,7.70
2023-04-02T17:08:24.459Z,7.68
2023-04-02T17:10:59.982Z,7.59
2023-04-02T17:13:36.925Z,7.57
2023-04-02T17:16:20.248Z,7.49
2023-04-02T17:18:58.034Z,7.49
2023-04-02T17:21:33.200Z,7.54
2023-04-02T17:24:18.089Z,7.60
2023-04-02T17:26:51.024Z,7.65
2023-04-02T17:29:26.758Z,7.68
2023-04-02T17:32:02.834Z,7.68
2023-04-02T17:34:33.460Z,7.70
2023-04-02T17:37:16.084Z,7.72
2023-04-02T17:39:56.552Z,7.71
2023-04-02T17:42:41.058Z,7.70
2023-04-02T17:45:15.241Z,7.65
2023-04-02T17:47:54.703Z,7.57
2023-04-02T17:50:42.490Z,7.48
2023-04-02T17:53:25.048Z,7.39
2023-04-02T17:56:07.080Z,7.32
2023-04-02T17:58:58.701Z,7.22
2023-04-02T18:01:41.351Z,7.12
2023-04-02T18:04:32.812Z,7.07
2023-04-02T18:07:20.228Z,7.00
2023-04-02T18:10:01.649Z,6.91
2023-04-02T18:12:46.590Z,6.76
2023-04-02T18:15:39.578Z,6.82
2023-04-02T18:18:21.117Z,6.78
2023-04-02T18:20:59.974Z,6.76
2023-04-02T18:23:43.226Z,6.70
2023-04-02T18:26:26.507Z,6.65
2023-04-02T18:29:04.814Z,6.60
2023-04-02T18:31:43.453Z,6.56
2023-04-02T18:34:30.006Z,6.53
2023-04-02T18:37:15.491Z,6.48
2023-04-02T18:40:08.735Z,6.47
2023-04-02T18:42:54.945Z,6.43
2023-04-02T18:45:34.515Z,6.40
2023-04-02T18:48:18.351Z,6.37
2023-04-02T18:50:49.286Z,6.27
2023-04-02T18:53:21.408Z,6.31
2023-04-02T18:55:59.652Z,6.26
2023-04-02T18:58:41.908Z,6.20
2023-04-02T19:01:18.320Z,6.16
2023-04-02T19:03:54.206Z,6.14
2023-04-02T19:06:27.259Z,6.11
2023-04-02T19:09:01.961Z,6.03
2023-04-02T19:11:32.605Z,5.98
2023-04-02T19:14:10.187Z,5.95
2023-04-02T19:17:04.447Z,5.92
2023-04-02T19:19:43.101Z,5.87
2023-04-02T19:22:29.691Z,5.84
2023-04-02T19:25:26.481Z,5.75
2023-04-02T19:28:10.091Z,5.72
2023-04-02T19:30:55.711Z,5.69
2023-04-02T19:33:42.563Z,5.62
2023-04-02T19:36:35.686Z,5.58
2023-04-02T19:39:28.192Z,5.50
2023-04-02T19:42:06.213Z,5.48
2023-04-02T19:44:36.792Z,5.41
2023-04-02T19:47:11.769Z,5.40
2023-04-02T19:49:42.451Z,5.38
2023-04-02T19:52:13.235Z,5.35
2023-04-02T19:54:43.880Z,5.29
2023-04-02T19:57:16.980Z,5.26
2023-04-02T19:59:47.596Z,5.21
2023-04-02T20:02:20.795Z,5.18
2023-04-02T20:04:51.460Z,5.12
2023-04-02T20:07:21.964Z,5.09
2023-04-02T20:09:52.458Z,5.07
2023-04-02T20:12:23.079Z,5.00
2023-04-02T20:14:53.610Z,4.96
2023-04-02T20:17:26.823Z,4.69
2023-04-02T20:19:57.386Z,4.90
2023-04-02T20:22:28.096Z,4.88
2023-04-02T20:24:58.681Z,4.84
2023-04-02T20:27:29.281Z,4.79
2023-04-02T20:29:59.881Z,4.79
2023-04-02T20:32:34.746Z,4.73
2023-04-02T20:35:07.644Z,4.70
2023-04-02T20:37:39.751Z,4.67
2023-04-02T20:40:12.088Z,4.63
2023-04-02T20:42:42.635Z,4.57
2023-04-02T20:45:14.075Z,4.54
2023-04-02T20:47:47.688Z,4.50
2023-04-02T20:50:18.812Z,4.28
2023-04-02T20:52:49.628Z,4.38
2023-04-02T20:55:20.660Z,4.40
2023-04-02T20:57:51.263Z,4.39
2023-04-02T21:00:22.804Z,4.35
2023-04-02T21:02:56.121Z,4.29
2023-04-02T21:05:26.691Z,4.26
2023-04-02T21:07:57.320Z,4.21
2023-04-02T21:10:28.003Z,4.18
2023-04-02T21:12:59.042Z,4.13
2023-04-02T21:15:29.869Z,4.11
2023-04-02T21:18:03.025Z,4.08
2023-04-02T21:20:33.581Z,4.03
2023-04-02T21:23:04.296Z,3.99
2023-04-02T21:25:35.162Z,3.98
2023-04-02T21:28:06.058Z,3.92
2023-04-02T21:30:36.676Z,3.71
2023-04-02T21:33:09.896Z,3.86
2023-04-02T21:35:40.522Z,3.82
2023-04-02T21:38:11.107Z,3.76
2023-04-02T21:40:41.704Z,3.74
2023-04-02T21:43:12.288Z,3.61
2023-04-02T21:45:42.972Z,3.69
2023-04-02T21:48:16.060Z,3.64
2023-04-02T21:50:46.939Z,3.61
2023-04-02T21:53:17.548Z,3.57
2023-04-02T21:55:48.458Z,3.54
2023-04-02T21:58:19.002Z,3.50
2023-04-02T22:00:49.609Z,3.46
2023-04-02T22:03:31.126Z,3.44
2023-04-02T22:06:08.366Z,3.39
2023-04-02T22:08:39.575Z,3.34
2023-04-02T22:11:12.361Z,3.29
2023-04-02T22:13:44.666Z,3.27
2023-04-02T22:16:18.338Z,3.21
2023-04-02T22:18:52.953Z,3.21
2023-04-02T22:21:24.081Z,3.20
2023-04-02T22:23:55.464Z,3.15
2023-04-02T22:26:27.613Z,3.12
2023-04-02T22:28:58.101Z,3.10
2023-04-02T22:31:31.742Z,2.92
2023-04-02T22:34:06.314Z,2.98
2023-04-02T22:36:37.473Z,2.75
2023-04-02T22:39:12.353Z,2.92
2023-04-02T22:41:43.546Z,2.87
2023-04-02T22:44:17.230Z,2.87
2023-04-02T22:46:47.926Z,2.63
2023-04-02T22:49:21.088Z,2.79
2023-04-02T22:51:51.836Z,2.75
2023-04-02T22:54:22.390Z,2.72
2023-04-02T22:56:52.967Z,2.68
2023-04-02T22:59:23.886Z,2.63
2023-04-02T23:01:54.610Z,2.60
2023-04-02T23:04:27.854Z,2.53
2023-04-02T23:06:58.625Z,2.52
2023-04-02T23:09:29.188Z,2.48
2023-04-02T23:12:18.426Z,2.43
2023-04-02T23:14:49.240Z,2.40
2023-04-02T23:17:19.769Z,2.35
2023-04-02T23:19:52.981Z,2.31
2023-04-02T23:22:23.604Z,2.28
2023-04-02T23:24:54.724Z,2.19
2023-04-02T23:27:25.735Z,2.21
2023-04-02T23:29:56.480Z,2.19
2023-04-02T23:32:27.422Z,2.20
2023-04-02T23:35:00.622Z,2.19
2023-04-02T23:37:31.507Z,2.17
2023-04-02T23:40:02.354Z,2.16
2023-04-02T23:42:32.938Z,2.06
2023-04-02T23:45:03.516Z,2.11
2023-04-02T23:47:34.181Z,2.08
2023-04-02T23:50:08.002Z,2.05
2023-04-02T23:52:38.643Z,2.00
2023-04-02T23:55:09.907Z,1.96
2023-04-02T23:57:40.505Z,1.96
